EW6527 Weather Reports


Display with metric or nautical units.
time (UTC)temp
F
wind
direction
speed
MPH
gust
MPH
rain 1hr
in
rain 24hr
in
rain mn
in
humidity
%
barometer
mb
20260506175925 71 0 0.0 0.0 0.00 0.00 0.00 59 1016.7
20260506175412 71 0 0.0 0.0 0.00 0.00 0.00 57 1016.8
20260506173924 72 0 0.0 0.0 0.00 0.00 0.00 56 1016.8
20260506172924 72 0 0.0 0.0 0.00 0.00 0.00 59 1016.7
20260506172409 72 0 0.0 0.0 0.00 0.00 0.00 58 1016.6
20260506171411 71 0 0.0 0.0 0.00 0.00 0.00 58 1016.6
20260506170323 71 0 0.0 0.0 0.00 0.00 0.00 60 1016.6
20260506170108 71 0 0.0 0.0 0.00 0.00 0.00 60 1016.6
20260506163923 71 0 0.0 0.0 0.00 0.00 0.00 57 1016.6
20260506162922 72 0 0.0 0.0 0.00 0.00 0.00 56 1016.8
20260506161922 72 0 0.0 0.0 0.00 0.00 0.00 54 1016.9
20260506160922 73 0 0.0 0.0 0.00 0.00 0.00 53 1016.8
20260506155923 74 0 0.0 0.0 0.00 0.00 0.00 49 1017.0
20260506154923 76 0 0.0 0.0 0.00 0.00 0.00 50 1017.0
20260506153922 79 0 0.0 0.0 0.00 0.00 0.00 46 1016.9
20260506153357 81 0 0.0 0.0 0.00 0.00 0.00 34 1016.4
20260506151920 83 0 0.0 0.0 0.00 0.00 0.00 33 1016.4
20260506150921 83 0 0.0 0.0 0.00 0.00 0.00 33 1016.4
20260506145921 83 0 0.0 0.0 0.00 0.00 0.00 33 1016.5
20260506144919 83 0 0.0 0.0 0.00 0.00 0.00 32 1016.6
20260506143919 85 0 0.0 0.0 0.00 0.00 0.00 30 1016.6
20260506143358 86 0 0.0 0.0 0.00 0.00 0.00 29 1016.6
20260506141918 87 0 0.0 0.0 0.00 0.00 0.00 28 1016.7
20260506140919 89 0 0.0 0.0 0.00 0.00 0.00 27 1016.7
20260506135918 88 0 0.0 0.0 0.00 0.00 0.00 28 1016.5
20260506134919 88 0 0.0 0.0 0.00 0.00 0.00 28 1016.6
20260506133919 87 0 0.0 0.0 0.00 0.00 0.00 27 1016.8
20260506133406 88 0 0.0 0.0 0.00 0.00 0.00 28 1016.8
20260506131918 89 0 0.0 0.0 0.00 0.00 0.00 26 1017.0
20260506130917 88 0 0.0 0.0 0.00 0.00 0.00 27 1017.1
20260506125917 88 0 0.0 0.0 0.00 0.00 0.00 29 1017.0
20260506124914 87 0 0.0 0.0 0.00 0.00 0.00 29 1017.1
20260506123915 86 0 0.0 0.0 0.00 0.00 0.00 30 1017.2
20260506122915 85 0 0.0 0.0 0.00 0.00 0.00 33 1017.3
20260506121914 84 0 0.0 0.0 0.00 0.00 0.00 32 1017.3
20260506120914 83 0 0.0 0.0 0.00 0.00 0.00 34 1017.4
20260506115913 82 0 0.0 0.0 0.00 0.00 0.00 35 1017.4
20260506114912 82 0 0.0 0.0 0.00 0.00 0.00 34 1017.4
20260506114347 81 0 0.0 0.0 0.00 0.00 0.00 35 1017.5
20260506112910 81 0 0.0 0.0 0.00 0.00 0.00 36 1017.5
20260506112353 80 0 0.0 0.0 0.00 0.00 0.00 37 1017.6
20260506110910 79 0 0.0 0.0 0.00 0.00 0.00 37 1017.6
20260506105910 79 0 0.0 0.0 0.00 0.00 0.00 39 1017.6
20260506104911 77 0 0.0 0.0 0.00 0.00 0.00 40 1017.9
20260506104349 76 0 0.0 0.0 0.00 0.00 0.00 42 1017.7
20260506102908 75 0 0.0 0.0 0.00 0.00 0.00 43 1017.7
20260506101908 75 0 0.0 0.0 0.00 0.00 0.00 45 1017.7
20260506100916 74 0 0.0 0.0 0.00 0.00 0.00 45 1017.7
20260506095908 74 0 0.0 0.0 0.00 0.00 0.00 45 1017.8
20260506095350 73 0 0.0 0.0 0.00 0.00 0.00 48 1017.7
20260506093906 73 0 0.0 0.0 0.00 0.00 0.00 48 1017.7
20260506092906 72 0 0.0 0.0 0.00 0.00 0.00 48 1017.6
20260506091905 72 0 0.0 0.0 0.00 0.00 0.00 49 1017.7
20260506090906 71 0 0.0 0.0 0.00 0.00 0.00 50 1017.6
20260506085906 71 0 0.0 0.0 0.00 0.00 0.00 50 1017.7
20260506084906 71 0 0.0 0.0 0.00 0.00 0.00 50 1017.6
20260506083907 71 0 0.0 0.0 0.00 0.00 0.00 50 1017.6
20260506082912 71 0 0.0 0.0 0.00 0.00 0.00 50 1017.5
20260506082818 70 0 0.0 0.0 0.00 0.00 0.00 51 1017.4
20260506080905 70 0 0.0 0.0 0.00 0.00 0.00 51 1017.4
20260506071908 69 0 0.0 0.0 0.00 0.00 0.00 50 1017.1
20260506070904 69 0 0.0 0.0 0.00 0.00 0.00 50 1017.0
20260506061901 67 0 0.0 0.0 0.00 0.00 0.00 52 1016.8
20260506060902 67 0 0.0 0.0 0.00 0.00 0.00 53 1016.8
20260506050854 65 0 0.0 0.0 0.00 0.00 0.00 52 1016.7
20260506050338 66 0 0.0 0.0 0.00 0.00 0.00 51 1016.7
20260506044855 66 0 0.0 0.0 0.00 0.00 0.00 50 1016.6
20260506044332 66 0 0.0 0.0 0.00 0.00 0.00 49 1016.6
20260506042855 66 0 0.0 0.0 0.00 0.00 0.00 49 1016.4
20260506042253 66 0 0.0 0.0 0.00 0.00 0.00 48 1016.3
20260506042026 66 0 0.0 0.0 0.00 0.00 0.00 48 1016.4
20260506040334 66 0 0.0 0.0 0.00 0.00 0.00 49 1016.2
20260506034853 66 0 0.0 0.0 0.00 0.00 0.00 48 1016.2
20260506033851 66 0 0.0 0.0 0.00 0.00 0.00 47 1016.3
20260506032851 66 0 0.0 0.0 0.00 0.00 0.00 47 1016.3
20260506031851 66 0 0.0 0.0 0.00 0.00 0.00 47 1016.3
20260506030851 65 0 0.0 0.0 0.00 0.00 0.00 47 1016.3
20260506025851 65 0 0.0 0.0 0.00 0.00 0.00 47 1016.3
20260506024851 65 0 0.0 0.0 0.00 0.00 0.00 47 1016.3
20260506023851 66 0 0.0 0.0 0.00 0.00 0.00 47 1016.3
20260506022850 66 0 0.0 0.0 0.00 0.00 0.00 46 1016.3
20260506021851 67 0 0.0 0.0 0.00 0.00 0.00 45 1016.2
20260506021332 67 0 0.0 0.0 0.00 0.00 0.00 44 1016.3
20260506015845 67 0 0.0 0.0 0.00 0.00 0.00 43 1016.4
20260506014844 67 0 0.0 0.0 0.00 0.00 0.00 44 1016.5
20260506013845 67 0 0.0 0.0 0.00 0.00 0.00 44 1016.6
20260506012845 67 0 0.0 0.0 0.00 0.00 0.00 44 1016.6
20260506011844 67 0 0.0 0.0 0.00 0.00 0.00 44 1016.6
20260506010845 67 0 0.0 0.0 0.00 0.00 0.00 44 1016.7
20260506005845 67 0 0.0 0.0 0.00 0.00 0.00 44 1016.8
20260506004844 67 0 0.0 0.0 0.00 0.00 0.00 43 1016.7
20260506003844 68 0 0.0 0.0 0.00 0.00 0.00 41 1016.7
20260506002844 68 0 0.0 0.0 0.00 0.00 0.00 42 1016.7
20260506001845 69 0 0.0 0.0 0.00 0.00 0.00 42 1016.9
20260506000845 69 0 0.0 0.0 0.00 0.00 0.00 40 1016.9
20260505235845 69 0 0.0 0.0 0.00 0.00 0.00 40 1016.9
20260505234844 69 0 0.0 0.0 0.00 0.00 0.00 42 1016.9
20260505234326 69 0 0.0 0.0 0.00 0.00 0.00 39 1017.1
20260505233320 70 0 0.0 0.0 0.00 0.00 0.00 39 1017.1
20260505231844 69 0 0.0 0.0 0.00 0.00 0.00 40 1017.2
20260505231320 69 0 0.0 0.0 0.00 0.00 0.00 38 1017.3
20260505225845 69 0 0.0 0.0 0.00 0.00 0.00 41 1017.4
20260505224841 70 0 0.0 0.0 0.00 0.00 0.00 41 1017.4
20260505223839 70 0 0.0 0.0 0.00 0.00 0.00 41 1017.3
20260505222838 70 0 0.0 0.0 0.00 0.00 0.00 37 1017.4
20260505221838 70 0 0.0 0.0 0.00 0.00 0.00 39 1017.5
20260505220838 70 0 0.0 0.0 0.00 0.00 0.00 36 1017.5
20260505215838 70 0 0.0 0.0 0.00 0.00 0.00 36 1017.6
20260505214835 71 0 0.0 0.0 0.00 0.00 0.00 35 1017.8
20260505213834 71 0 0.0 0.0 0.00 0.00 0.00 35 1017.8
20260505212833 71 0 0.0 0.0 0.00 0.00 0.00 34 1017.8
20260505211835 71 0 0.0 0.0 0.00 0.00 0.00 34 1017.8
20260505210834 71 0 0.0 0.0 0.00 0.00 0.00 33 1017.8
20260505205834 71 0 0.0 0.0 0.00 0.00 0.00 33 1017.7
20260505204834 72 0 0.0 0.0 0.00 0.00 0.00 32 1017.8
20260505204310 72 0 0.0 0.0 0.00 0.00 0.00 32 1017.8
20260505202833 72 0 0.0 0.0 0.00 0.00 0.00 33 1017.8
20260505201832 72 0 0.0 0.0 0.00 0.00 0.00 32 1017.8
20260505201313 72 0 0.0 0.0 0.00 0.00 0.00 31 1017.7
20260505200756 73 0 0.0 0.0 0.00 0.00 0.00 30 1017.7
20260505194832 74 0 0.0 0.0 0.00 0.00 0.00 29 1017.7
20260505193832 74 0 0.0 0.0 0.00 0.00 0.00 29 1017.7
20260505192830 74 0 0.0 0.0 0.00 0.00 0.00 28 1017.7
20260505191830 75 0 0.0 0.0 0.00 0.00 0.00 28 1017.7
20260505190829 75 0 0.0 0.0 0.00 0.00 0.00 28 1017.7
20260505185830 76 0 0.0 0.0 0.00 0.00 0.00 28 1017.7
20260505184830 76 0 0.0 0.0 0.00 0.00 0.00 27 1017.6
20260505183830 76 0 0.0 0.0 0.00 0.00 0.00 27 1017.5
20260505182830 76 0 0.0 0.0 0.00 0.00 0.00 26 1017.5
20260505181829 77 0 0.0 0.0 0.00 0.00 0.00 26 1017.3
20260505181313 77 0 0.0 0.0 0.00 0.00 0.00 25 1017.2